Time;durP1;ratioP1;P1;durP2;ratioP2;P2;SDS_P1;SDS_P2;PMS_P1;PMS_P2;Temp;Humidity;BMP_temperature;BMP_pressure;BME280_temperature;BME280_humidity;BME280_pressure;Samples;Min_cycle;Max_cycle;Signal;HPM_P1;HPM_P2
2021/06/19 00:02:02;;;;;;;25.83;18.58;;;18.90;98.80;;;;;;3575878;40;20048;-77
2021/06/19 00:04:31;;;;;;;22.33;16.30;;;18.90;98.80;;;;;;3576614;40;20410;-77
2021/06/19 00:07:01;;;;;;;28.83;18.45;;;19.00;99.20;;;;;;3585829;40;20053;-76
2021/06/19 00:09:27;;;;;;;24.80;16.17;;;19.00;99.00;;;;;;3584830;40;20052;-77
2021/06/19 00:11:53;;;;;;;22.10;16.50;;;19.00;98.80;;;;;;3585651;40;20067;-78
2021/06/19 00:14:20;;;;;;;21.90;15.38;;;19.00;98.80;;;;;;3585472;40;20041;-77
2021/06/19 00:16:47;;;;;;;22.33;16.63;;;18.90;98.80;;;;;;3585703;40;20100;-78
2021/06/19 00:19:13;;;;;;;15.77;12.68;;;19.00;98.80;;;;;;3585292;40;20150;-77
2021/06/19 00:21:41;;;;;;;21.25;13.73;;;18.90;98.90;;;;;;3585730;40;20036;-78
2021/06/19 00:24:21;;;;;;;21.63;14.73;;;18.90;98.80;;;;;;3585093;40;20049;-77
2021/06/19 00:26:47;;;;;;;21.55;16.45;;;18.90;98.80;;;;;;3585732;40;20355;-77
2021/06/19 00:29:14;;;;;;;24.55;17.40;;;18.90;98.80;;;;;;3584386;40;20052;-77
2021/06/19 00:31:40;;;;;;;23.95;16.55;;;18.90;98.80;;;;;;3583639;40;20032;-78
2021/06/19 00:34:06;;;;;;;24.42;16.60;;;18.90;98.90;;;;;;3585637;40;20055;-77
2021/06/19 00:36:31;;;;;;;21.60;15.73;;;18.90;98.80;;;;;;3587282;40;20259;-78
2021/06/19 00:38:57;;;;;;;20.52;15.90;;;18.90;98.80;;;;;;3578063;40;20067;-78
2021/06/19 00:41:23;;;;;;;24.40;16.23;;;18.90;98.80;;;;;;3587236;40;20096;-78
2021/06/19 00:43:49;;;;;;;23.25;15.77;;;18.90;98.80;;;;;;3578187;40;20095;-78
2021/06/19 00:46:15;;;;;;;23.40;16.75;;;18.90;98.80;;;;;;3586522;40;20052;-78
2021/06/19 00:48:41;;;;;;;19.30;15.30;;;18.90;99.00;;;;;;3578015;40;20041;-79
2021/06/19 00:51:07;;;;;;;21.92;15.93;;;18.90;98.90;;;;;;3586719;40;20032;-78
2021/06/19 00:53:33;;;;;;;21.42;15.30;;;18.90;98.90;;;;;;3587109;40;20036;-78
2021/06/19 00:56:01;;;;;;;15.75;12.38;;;18.90;98.90;;;;;;3586848;40;20101;-78
2021/06/19 00:58:28;;;;;;;24.60;15.75;;;18.90;99.00;;;;;;3577461;40;20036;-78
2021/06/19 01:00:57;;;;;;;23.58;16.95;;;18.90;98.90;;;;;;3586273;40;20398;-78
2021/06/19 01:03:23;;;;;;;22.95;15.60;;;18.90;99.00;;;;;;3577769;40;20048;-78
2021/06/19 01:05:50;;;;;;;22.05;16.50;;;18.90;99.00;;;;;;3586242;40;20244;-78
2021/06/19 01:08:16;;;;;;;25.90;17.42;;;18.90;98.90;;;;;;3586712;40;20047;-77
2021/06/19 01:10:42;;;;;;;21.65;16.95;;;18.90;99.10;;;;;;3586891;40;20056;-78
2021/06/19 01:13:08;;;;;;;19.55;15.98;;;18.90;99.10;;;;;;3586770;40;20055;-79
2021/06/19 01:15:34;;;;;;;21.55;15.98;;;18.90;99.10;;;;;;3586490;40;20052;-78
2021/06/19 01:18:00;;;;;;;21.45;17.17;;;18.90;99.00;;;;;;3586616;40;20410;-78
2021/06/19 01:20:26;;;;;;;18.58;16.65;;;18.90;99.20;;;;;;3577434;40;20047;-79
2021/06/19 01:22:56;;;;;;;19.90;17.63;;;18.90;99.10;;;;;;3586562;40;20041;-78
2021/06/19 01:25:27;;;;;;;20.20;17.90;;;18.90;99.10;;;;;;3586829;40;20048;-78
2021/06/19 01:27:54;;;;;;;20.95;18.77;;;18.90;99.20;;;;;;3587117;40;20040;-78
2021/06/19 01:30:23;;;;;;;22.52;19.27;;;18.90;99.10;;;;;;3586648;40;20068;-79
2021/06/19 01:32:50;;;;;;;26.92;20.30;;;18.90;99.10;;;;;;3586793;40;20193;-78
2021/06/19 01:35:16;;;;;;;26.58;20.58;;;18.90;99.20;;;;;;3585486;40;20028;-79
2021/06/19 01:37:44;;;;;;;22.17;19.83;;;18.80;99.20;;;;;;3587188;40;20316;-79
2021/06/19 01:40:16;;;;;;;27.92;21.45;;;18.90;99.20;;;;;;3586657;40;20076;-78
2021/06/19 01:42:43;;;;;;;30.05;23.30;;;18.80;99.60;;;;;;3586964;40;20045;-79
2021/06/19 01:45:22;;;;;;;23.17;20.08;;;18.80;99.40;;;;;;3585306;40;20044;-80
2021/06/19 01:47:49;;;;;;;28.13;21.52;;;18.80;99.20;;;;;;3587037;40;20037;-81
2021/06/19 01:50:17;;;;;;;24.15;20.75;;;18.80;99.30;;;;;;3586716;40;20033;-79
2021/06/19 01:52:43;;;;;;;24.85;21.42;;;18.70;99.40;;;;;;3587059;40;20044;-79
2021/06/19 01:55:09;;;;;;;27.02;21.55;;;18.70;99.30;;;;;;3586640;40;20056;-79
2021/06/19 01:57:38;;;;;;;30.88;23.65;;;18.70;99.20;;;;;;3581663;40;20037;-79
2021/06/19 02:00:13;;;;;;;29.95;24.42;;;18.80;99.30;;;;;;3576392;40;20036;-80
2021/06/19 02:02:40;;;;;;;27.88;22.85;;;18.70;99.30;;;;;;3586805;40;20052;-79
2021/06/19 02:05:11;;;;;;;29.10;23.45;;;18.70;99.20;;;;;;3586550;40;20046;-80
2021/06/19 02:07:53;;;;;;;30.75;24.30;;;18.70;99.60;;;;;;3577485;40;20051;-80
2021/06/19 02:10:25;;;;;;;35.10;27.42;;;18.70;99.60;;;;;;3583528;40;20156;-80
2021/06/19 02:12:51;;;;;;;33.83;27.05;;;18.70;99.30;;;;;;3586587;40;20050;-79
2021/06/19 02:15:18;;;;;;;29.48;24.48;;;18.70;99.30;;;;;;3585251;40;20076;-79
2021/06/19 02:17:44;;;;;;;31.90;25.63;;;18.70;99.30;;;;;;3586636;40;20037;-79
2021/06/19 02:20:14;;;;;;;37.80;27.65;;;18.60;99.30;;;;;;3576912;40;20051;-79
2021/06/19 02:22:40;;;;;;;30.27;24.70;;;18.60;99.30;;;;;;3586532;40;20045;-79
2021/06/19 02:25:09;;;;;;;32.08;28.13;;;18.60;99.30;;;;;;3586521;40;20048;-78
2021/06/19 02:27:36;;;;;;;29.40;24.77;;;18.60;99.40;;;;;;3586559;40;20040;-79
2021/06/19 02:30:03;;;;;;;29.20;26.00;;;18.60;99.40;;;;;;3586080;40;20040;-79
2021/06/19 02:32:28;;;;;;;35.85;29.13;;;18.60;99.50;;;;;;3576937;40;20481;-79
2021/06/19 02:34:55;;;;;;;39.08;31.35;;;18.60;99.50;;;;;;3585060;40;20052;-78
2021/06/19 02:37:21;;;;;;;37.53;28.55;;;18.50;99.50;;;;;;3585983;40;20037;-79
2021/06/19 02:39:47;;;;;;;35.95;30.00;;;18.50;99.40;;;;;;3586419;40;20128;-78
2021/06/19 02:42:13;;;;;;;43.60;33.17;;;18.50;99.50;;;;;;3576730;40;20056;-79
2021/06/19 02:44:39;;;;;;;57.63;36.58;;;18.60;99.50;;;;;;3577201;40;20044;-79
2021/06/19 02:47:04;;;;;;;39.08;31.40;;;18.50;99.40;;;;;;3585871;40;20044;-79
2021/06/19 02:49:30;;;;;;;46.22;34.63;;;18.50;99.50;;;;;;3586480;40;20047;-78
2021/06/19 02:51:57;;;;;;;36.50;29.75;;;18.50;99.60;;;;;;3586292;40;20239;-79
2021/06/19 02:54:23;;;;;;;46.35;33.47;;;18.50;99.50;;;;;;3586372;40;20047;-80
2021/06/19 02:56:48;;;;;;;39.13;30.65;;;18.50;99.60;;;;;;3584705;40;20049;-79
2021/06/19 02:59:14;;;;;;;37.85;29.70;;;18.50;99.60;;;;;;3573059;40;20235;-79
2021/06/19 03:01:40;;;;;;;35.20;28.48;;;18.50;99.60;;;;;;3586454;40;20532;-80
2021/06/19 03:04:06;;;;;;;40.00;32.25;;;18.50;99.70;;;;;;3586266;40;20032;-78
2021/06/19 03:06:32;;;;;;;51.33;36.08;;;18.50;99.60;;;;;;3585275;40;20048;-78
2021/06/19 03:08:58;;;;;;;40.33;32.63;;;18.50;99.70;;;;;;3577160;40;20036;-79
2021/06/19 03:11:23;;;;;;;41.70;32.58;;;18.50;99.90;;;;;;3586124;40;20130;-79
2021/06/19 03:13:49;;;;;;;48.53;31.20;;;18.60;99.80;;;;;;3576841;40;20056;-79
2021/06/19 03:16:16;;;;;;;41.30;34.33;;;18.50;99.80;;;;;;3585834;40;20032;-79
2021/06/19 03:18:42;;;;;;;43.67;32.17;;;18.60;99.90;;;;;;3585370;40;20047;-79
2021/06/19 03:21:07;;;;;;;40.15;30.67;;;18.60;99.80;;;;;;3585933;40;20341;-79
2021/06/19 03:23:33;;;;;;;36.42;31.98;;;18.60;99.90;;;;;;3576984;40;20223;-79
2021/06/19 03:25:59;;;;;;;40.30;34.65;;;18.60;99.90;;;;;;3585969;40;20149;-79
2021/06/19 03:28:25;;;;;;;37.97;32.83;;;18.60;99.90;;;;;;3585876;40;20043;-79
2021/06/19 03:30:51;;;;;;;35.03;31.38;;;18.60;99.90;;;;;;3581616;40;20337;-79
2021/06/19 03:33:17;;;;;;;38.55;33.97;;;18.70;99.90;;;;;;3585677;40;20156;-80
2021/06/19 03:35:43;;;;;;;40.47;33.03;;;18.70;99.90;;;;;;3585972;40;20495;-79
2021/06/19 03:38:10;;;;;;;37.05;32.67;;;18.70;99.90;;;;;;3585854;40;20617;-80
2021/06/19 03:40:37;;;;;;;34.83;31.08;;;18.70;99.90;;;;;;3586120;40;20056;-79
2021/06/19 03:43:03;;;;;;;38.15;32.28;;;18.70;99.90;;;;;;3585948;40;20257;-80
2021/06/19 03:45:31;;;;;;;37.45;30.83;;;18.80;99.90;;;;;;3585635;40;20141;-80
2021/06/19 03:47:57;;;;;;;36.03;30.65;;;18.80;99.90;;;;;;3576515;40;20037;-80
2021/06/19 03:50:26;;;;;;;32.45;27.77;;;18.80;99.90;;;;;;3576769;40;20084;-81
2021/06/19 03:52:53;;;;;;;33.35;27.83;;;18.80;99.90;;;;;;3577158;40;20408;-81
2021/06/19 03:55:19;;;;;;;33.58;26.90;;;18.80;99.90;;;;;;3585961;40;20557;-80
2021/06/19 03:57:45;;;;;;;36.28;29.20;;;18.90;99.90;;;;;;3585515;40;20072;-80
2021/06/19 04:00:14;;;;;;;31.75;27.92;;;18.90;99.90;;;;;;3585404;40;20067;-81
2021/06/19 04:02:40;;;;;;;32.08;27.67;;;18.90;99.90;;;;;;3566733;40;20048;-80
2021/06/19 04:05:08;;;;;;;35.17;29.40;;;18.90;99.90;;;;;;3584823;40;20335;-81
2021/06/19 04:07:34;;;;;;;28.98;25.80;;;18.90;99.90;;;;;;3576751;40;20106;-80
2021/06/19 04:10:00;;;;;;;28.38;25.27;;;19.00;99.90;;;;;;3586750;40;20066;-80
2021/06/19 04:12:26;;;;;;;28.10;25.13;;;19.00;99.90;;;;;;3587444;40;20033;-81
2021/06/19 04:14:52;;;;;;;27.55;24.20;;;19.00;99.90;;;;;;3569966;40;20138;-81
2021/06/19 04:17:19;;;;;;;28.75;25.83;;;19.10;99.90;;;;;;3587627;40;20067;-81
2021/06/19 04:19:45;;;;;;;27.02;23.30;;;19.10;99.90;;;;;;3587545;40;20060;-81
2021/06/19 04:22:12;;;;;;;29.27;25.13;;;19.10;99.90;;;;;;3586237;40;20051;-81
2021/06/19 04:24:39;;;;;;;29.33;24.45;;;19.20;99.90;;;;;;3577749;40;20048;-81
2021/06/19 04:27:10;;;;;;;27.08;24.17;;;19.20;99.90;;;;;;3587356;40;20243;-82
2021/06/19 04:29:38;;;;;;;27.08;24.20;;;19.30;99.90;;;;;;3577141;40;20354;-83
2021/06/19 04:32:05;;;;;;;32.45;25.58;;;19.40;99.90;;;;;;3587288;40;20163;-81
2021/06/19 04:34:31;;;;;;;34.97;25.25;;;19.40;99.90;;;;;;3587272;40;20385;-85
2021/06/19 04:36:57;;;;;;;26.25;22.92;;;19.50;99.90;;;;;;3587233;40;20040;-83
2021/06/19 04:39:23;;;;;;;27.13;24.27;;;19.50;99.90;;;;;;3587417;40;20235;-82
2021/06/19 04:42:01;;;;;;;27.63;24.52;;;19.60;99.90;;;;;;3586428;40;20060;-82
2021/06/19 04:45:00;;;;;;;27.63;24.73;;;19.70;99.90;;;;;;3578723;40;20063;-82
2021/06/19 04:47:15;;;;;;;27.60;24.90;;;19.70;99.90;;;;;;3577063;40;20043;-82
2021/06/19 04:49:41;;;;;;;27.63;22.55;;;19.70;99.80;;;;;;3587442;40;20044;-81
2021/06/19 04:52:08;;;;;;;28.02;25.17;;;19.70;99.90;;;;;;3587163;40;20047;-82
2021/06/19 04:54:37;;;;;;;30.05;24.85;;;19.60;99.80;;;;;;3569554;40;20052;-82
2021/06/19 04:57:06;;;;;;;27.92;24.95;;;19.60;99.80;;;;;;3586377;40;20039;-81
2021/06/19 04:59:34;;;;;;;27.52;24.25;;;19.60;99.90;;;;;;3581393;40;20044;-80
2021/06/19 05:02:00;;;;;;;28.45;24.98;;;19.70;99.90;;;;;;3584985;40;20141;-82
2021/06/19 05:04:27;;;;;;;25.77;23.17;;;19.80;99.90;;;;;;3577699;40;20044;-80
2021/06/19 05:06:53;;;;;;;26.27;23.40;;;19.90;99.90;;;;;;3577640;40;20040;-82
2021/06/19 05:09:19;;;;;;;26.67;23.88;;;20.00;99.80;;;;;;3577294;40;20049;-82
2021/06/19 05:11:45;;;;;;;25.25;22.55;;;20.10;99.80;;;;;;3569306;40;20052;-81
2021/06/19 05:14:11;;;;;;;27.60;23.27;;;20.20;99.60;;;;;;3586888;40;20044;-82
2021/06/19 05:16:37;;;;;;;25.10;22.58;;;20.30;99.60;;;;;;3574410;40;20391;-82
2021/06/19 05:19:03;;;;;;;26.30;23.63;;;20.40;99.50;;;;;;3577430;40;20065;-82
2021/06/19 05:21:29;;;;;;;27.67;24.90;;;20.50;99.40;;;;;;3583423;40;20043;-81
2021/06/19 05:23:55;;;;;;;27.30;23.98;;;20.50;99.40;;;;;;3586733;40;20062;-83
2021/06/19 05:26:21;;;;;;;27.17;24.58;;;20.70;99.40;;;;;;3585923;40;20453;-81
2021/06/19 05:28:47;;;;;;;28.45;23.50;;;20.70;99.30;;;;;;3586905;40;20052;-79
2021/06/19 05:31:13;;;;;;;26.10;23.30;;;20.70;99.30;;;;;;3577713;40;20044;-82
2021/06/19 05:33:39;;;;;;;26.83;23.17;;;20.70;99.40;;;;;;3577485;40;20048;-81
2021/06/19 05:36:05;;;;;;;24.95;22.55;;;20.70;99.50;;;;;;3585916;40;20038;-80
2021/06/19 05:38:30;;;;;;;27.33;24.38;;;20.80;99.50;;;;;;3577456;40;20056;-81
2021/06/19 05:40:56;;;;;;;25.20;22.67;;;20.80;99.50;;;;;;3586354;40;20044;-81
2021/06/19 05:43:22;;;;;;;26.27;23.50;;;20.80;99.50;;;;;;3586888;40;20055;-81
2021/06/19 05:45:48;;;;;;;28.42;23.83;;;20.70;99.40;;;;;;3586759;40;20047;-80
2021/06/19 05:48:14;;;;;;;27.17;22.92;;;20.60;99.30;;;;;;3581514;40;20102;-81
2021/06/19 05:50:40;;;;;;;27.48;24.52;;;20.50;99.30;;;;;;3577747;40;20040;-83
2021/06/19 05:53:05;;;;;;;27.05;24.42;;;20.50;99.40;;;;;;3585591;40;20048;-81
2021/06/19 05:55:31;;;;;;;29.33;25.45;;;20.40;99.50;;;;;;3576991;40;20055;-82
2021/06/19 05:57:57;;;;;;;26.85;23.98;;;20.40;99.70;;;;;;3575258;40;20032;-82
2021/06/19 06:00:23;;;;;;;26.20;23.52;;;20.50;99.70;;;;;;3584702;40;20299;-80
2021/06/19 06:02:49;;;;;;;27.15;23.92;;;20.50;99.70;;;;;;3568885;40;20040;-81
2021/06/19 06:05:15;;;;;;;27.17;24.48;;;20.50;99.70;;;;;;3577207;40;20044;-79
2021/06/19 06:07:41;;;;;;;28.10;23.38;;;20.50;99.80;;;;;;3586722;40;20047;-81
2021/06/19 06:10:07;;;;;;;29.08;24.50;;;20.60;99.80;;;;;;3586311;40;20311;-81
2021/06/19 06:12:33;;;;;;;24.30;21.83;;;20.60;99.60;;;;;;3577040;40;20058;-82
2021/06/19 06:14:59;;;;;;;23.13;20.52;;;20.70;99.70;;;;;;3586058;40;20331;-81
2021/06/19 06:17:25;;;;;;;26.08;22.40;;;20.70;99.60;;;;;;3586193;40;20043;-82
2021/06/19 06:19:52;;;;;;;23.67;21.25;;;20.70;99.50;;;;;;3583074;40;20048;-82
2021/06/19 06:22:18;;;;;;;23.05;20.58;;;20.70;99.40;;;;;;3579102;40;20037;-80
2021/06/19 06:24:44;;;;;;;22.13;19.63;;;20.80;99.50;;;;;;3578851;40;20043;-80
2021/06/19 06:27:10;;;;;;;24.52;22.08;;;20.80;99.40;;;;;;3569462;40;20037;-80
2021/06/19 06:29:36;;;;;;;25.38;22.92;;;20.80;99.40;;;;;;3579406;40;20259;-80
2021/06/19 06:32:02;;;;;;;24.13;21.80;;;20.80;99.50;;;;;;3577953;40;20080;-80
2021/06/19 06:34:29;;;;;;;22.83;20.52;;;20.80;99.40;;;;;;3577910;40;20243;-79
2021/06/19 06:36:57;;;;;;;25.20;22.58;;;20.80;99.40;;;;;;3578866;40;20040;-80
2021/06/19 06:39:23;;;;;;;25.40;22.65;;;20.80;99.50;;;;;;3578977;40;20083;-80
2021/06/19 06:41:49;;;;;;;23.38;20.88;;;20.80;99.50;;;;;;3578513;40;20036;-80
2021/06/19 06:44:15;;;;;;;23.00;20.60;;;20.80;99.40;;;;;;3576984;40;20063;-84
2021/06/19 06:46:41;;;;;;;23.67;19.15;;;20.80;99.30;;;;;;3569358;40;20072;-81
2021/06/19 06:49:07;;;;;;;23.38;20.20;;;20.80;99.40;;;;;;3579596;40;20052;-81
2021/06/19 06:51:42;;;;;;;18.73;16.65;;;20.90;99.40;;;;;;3577879;40;20236;-80
2021/06/19 06:54:07;;;;;;;18.88;15.88;;;21.20;99.40;;;;;;3577999;40;20041;-78
2021/06/19 06:56:33;;;;;;;10.10;8.77;;;21.40;99.00;;;;;;3579858;40;20056;-81
2021/06/19 06:58:59;;;;;;;12.70;9.80;;;21.30;97.80;;;;;;3569812;40;20144;-81
2021/06/19 07:01:26;;;;;;;14.35;12.00;;;21.30;97.70;;;;;;3584804;23;20046;-81
2021/06/19 07:03:55;;;;;;;12.07;10.70;;;21.10;97.80;;;;;;3557538;40;20548;-80
2021/06/19 07:06:25;;;;;;;14.63;12.13;;;21.00;97.60;;;;;;3557375;40;20038;-78
2021/06/19 07:08:52;;;;;;;12.80;11.50;;;20.90;97.70;;;;;;3549501;40;20514;-79
2021/06/19 07:11:19;;;;;;;15.40;13.80;;;21.00;97.60;;;;;;3557999;40;20367;-77
2021/06/19 07:13:47;;;;;;;15.50;13.88;;;21.00;97.60;;;;;;3556126;40;20053;-77
2021/06/19 07:16:13;;;;;;;17.27;13.45;;;21.10;97.60;;;;;;3546351;40;20046;-79
2021/06/19 07:18:39;;;;;;;14.80;13.30;;;21.10;97.50;;;;;;3553842;40;20343;-78
2021/06/19 07:21:06;;;;;;;14.70;13.15;;;21.10;97.60;;;;;;3548086;40;20046;-79
2021/06/19 07:23:31;;;;;;;18.77;15.07;;;21.10;97.50;;;;;;3557551;40;20053;-78
2021/06/19 07:25:58;;;;;;;15.82;14.15;;;21.50;97.40;;;;;;3557496;40;20049;-80
2021/06/19 07:28:24;;;;;;;16.13;13.82;;;21.90;97.00;;;;;;3563804;40;20355;-81
2021/06/19 07:30:50;;;;;;;17.00;15.23;;;22.20;96.80;;;;;;3568579;40;20040;-78
2021/06/19 07:33:15;;;;;;;18.08;14.85;;;22.10;95.90;;;;;;3565592;40;20127;-78
2021/06/19 07:35:54;;;;;;;18.45;14.85;;;22.10;96.40;;;;;;3567183;40;20130;-80
2021/06/19 07:38:21;;;;;;;15.38;13.77;;;22.00;96.50;;;;;;3567509;40;20049;-78
2021/06/19 07:40:50;;;;;;;17.15;13.80;;;22.00;96.60;;;;;;3558646;40;20080;-78
2021/06/19 07:43:16;;;;;;;15.68;14.13;;;22.00;96.60;;;;;;3567053;40;20685;-79
2021/06/19 07:45:42;;;;;;;15.48;13.88;;;21.90;96.60;;;;;;3566429;40;20119;-78
2021/06/19 07:48:07;;;;;;;13.90;12.20;;;21.80;96.50;;;;;;3591481;22;20033;-80
2021/06/19 07:50:34;;;;;;;15.63;13.35;;;21.60;96.40;;;;;;3567500;40;20134;-77
2021/06/19 07:52:59;;;;;;;14.85;13.35;;;21.60;96.60;;;;;;3565251;40;20637;-78
2021/06/19 07:55:25;;;;;;;14.30;12.80;;;21.50;96.40;;;;;;3559622;40;20052;-79
2021/06/19 07:57:51;;;;;;;12.20;10.88;;;21.60;96.70;;;;;;3567856;40;20044;-78
2021/06/19 08:00:17;;;;;;;11.25;10.02;;;21.80;96.20;;;;;;3578820;40;20044;-79
2021/06/19 08:02:44;;;;;;;12.38;10.40;;;21.90;96.00;;;;;;3570323;40;20072;-78
2021/06/19 08:05:11;;;;;;;13.45;10.48;;;21.90;95.70;;;;;;3570662;40;20676;-77
2021/06/19 08:07:37;;;;;;;11.52;8.25;;;22.10;96.10;;;;;;3582654;40;20051;-76
2021/06/19 08:10:04;;;;;;;7.72;6.97;;;22.30;96.40;;;;;;3583238;40;20037;-78
2021/06/19 08:12:30;;;;;;;8.27;6.70;;;22.50;95.80;;;;;;3581128;40;20052;-81
2021/06/19 08:14:55;;;;;;;6.28;4.55;;;22.80;95.60;;;;;;3557839;40;20048;-77
2021/06/19 08:17:25;;;;;;;5.47;4.93;;;23.00;95.30;;;;;;3580842;40;20125;-79
2021/06/19 08:19:52;;;;;;;9.55;8.35;;;23.10;95.20;;;;;;3585045;40;20045;-78
2021/06/19 08:22:20;;;;;;;10.43;9.32;;;23.30;94.30;;;;;;3574771;40;20118;-78
2021/06/19 08:24:47;;;;;;;11.43;10.23;;;23.20;94.30;;;;;;3571394;40;20505;-78
2021/06/19 08:27:14;;;;;;;15.68;9.85;;;23.10;94.20;;;;;;3572131;40;20041;-78
2021/06/19 08:29:40;;;;;;;15.02;11.68;;;23.00;94.70;;;;;;3571273;40;20589;-78
2021/06/19 08:32:12;;;;;;;10.88;9.60;;;22.90;94.20;;;;;;3573171;40;20052;-77
2021/06/19 08:34:37;;;;;;;13.40;11.10;;;22.80;94.50;;;;;;3560954;40;20092;-79
2021/06/19 08:37:04;;;;;;;12.55;11.23;;;22.70;94.30;;;;;;3573146;40;20071;-77
2021/06/19 08:39:30;;;;;;;15.93;11.82;;;22.50;94.50;;;;;;3573398;40;20128;-77
2021/06/19 08:41:56;;;;;;;15.50;13.27;;;22.50;94.50;;;;;;3574679;40;20060;-79
2021/06/19 08:44:23;;;;;;;15.65;13.02;;;22.40;94.40;;;;;;3565780;40;20037;-77
2021/06/19 08:46:53;;;;;;;14.32;10.75;;;22.30;94.40;;;;;;3562663;40;20041;-78
2021/06/19 08:49:24;;;;;;;13.25;11.25;;;22.20;94.20;;;;;;3579697;40;20040;-78
2021/06/19 08:51:53;;;;;;;15.38;10.15;;;22.10;94.10;;;;;;3571947;40;20162;-79
2021/06/19 08:54:20;;;;;;;12.30;9.60;;;22.00;94.30;;;;;;3582930;40;20048;-80
2021/06/19 08:56:47;;;;;;;12.90;8.55;;;22.00;94.40;;;;;;3582296;40;20140;-77
2021/06/19 08:59:13;;;;;;;8.95;7.40;;;22.00;94.30;;;;;;3583457;40;20067;-83
2021/06/19 09:01:40;;;;;;;8.55;7.53;;;22.00;94.10;;;;;;3575409;40;20594;-78
2021/06/19 09:04:08;;;;;;;11.02;8.27;;;22.10;94.00;;;;;;3577069;40;20142;-77
2021/06/19 09:06:39;;;;;;;13.23;8.95;;;22.20;94.40;;;;;;3586051;40;20048;-77
2021/06/19 09:09:18;;;;;;;13.13;8.75;;;22.30;94.30;;;;;;3586894;40;20040;-77
2021/06/19 09:11:45;;;;;;;9.90;8.75;;;22.40;94.60;;;;;;3582068;40;20040;-78
2021/06/19 09:14:16;;;;;;;11.60;9.48;;;22.50;94.00;;;;;;3579216;40;20146;-79
2021/06/19 09:16:45;;;;;;;12.88;9.45;;;22.50;94.10;;;;;;3575423;40;20308;-78
2021/06/19 09:19:30;;;;;;;11.98;9.65;;;22.50;93.90;;;;;;3584334;40;20045;-77
2021/06/19 09:22:28;;;;;;;9.73;8.73;;;22.50;91.10;;;;;;3577788;40;20047;-80
2021/06/19 09:24:57;;;;;;;11.25;9.43;;;22.60;91.00;;;;;;3540624;40;20609;-76
2021/06/19 09:27:45;;;;;;;10.25;8.60;;;22.50;93.50;;;;;;3572146;40;20036;-78
2021/06/19 09:30:14;;;;;;;10.60;9.45;;;22.50;91.70;;;;;;3573587;40;20620;-78
2021/06/19 09:32:47;;;;;;;11.32;8.10;;;22.50;93.60;;;;;;3573830;40;20041;-76
2021/06/19 09:35:24;;;;;;;9.88;8.60;;;22.50;93.10;;;;;;3573961;40;20033;-78
2021/06/19 09:37:54;;;;;;;11.93;9.20;;;22.70;93.10;;;;;;3562764;40;20072;-78
2021/06/19 09:40:23;;;;;;;10.18;7.68;;;22.70;93.50;;;;;;3572698;40;20065;-77
2021/06/19 09:42:52;;;;;;;8.00;6.53;;;22.80;93.60;;;;;;3572164;40;20240;-77
2021/06/19 09:45:24;;;;;;;13.55;8.65;;;22.80;93.80;;;;;;3564626;40;20129;-77
2021/06/19 09:47:51;;;;;;;9.80;8.02;;;22.90;93.80;;;;;;3572987;40;20040;-77
2021/06/19 09:50:20;;;;;;;8.60;7.65;;;23.10;93.60;;;;;;3564077;40;20311;-77
2021/06/19 09:52:47;;;;;;;9.85;7.22;;;23.20;93.00;;;;;;3573940;40;20095;-78
2021/06/19 09:55:15;;;;;;;9.60;8.60;;;23.20;93.10;;;;;;3576540;40;20047;-78
2021/06/19 09:57:49;;;;;;;9.60;8.55;;;23.30;93.00;;;;;;3578268;40;20048;-77
2021/06/19 10:00:17;;;;;;;10.07;8.70;;;23.50;92.20;;;;;;3567103;40;20032;-78
2021/06/19 10:02:44;;;;;;;9.13;8.20;;;23.70;93.10;;;;;;3576399;40;20393;-78
2021/06/19 10:05:10;;;;;;;11.05;9.18;;;24.00;92.90;;;;;;3568044;40;20041;-77
2021/06/19 10:07:37;;;;;;;10.13;8.52;;;24.20;92.80;;;;;;3577330;40;20078;-78
2021/06/19 10:10:11;;;;;;;9.85;8.82;;;24.40;92.00;;;;;;3578242;40;20293;-79
2021/06/19 10:12:38;;;;;;;9.02;8.23;;;24.50;92.00;;;;;;3576883;40;20036;-79
2021/06/19 10:15:06;;;;;;;10.48;8.55;;;24.70;91.40;;;;;;3575990;40;20217;-77
2021/06/19 10:17:37;;;;;;;10.90;9.80;;;24.80;91.90;;;;;;3576013;40;20041;-79
2021/06/19 10:20:06;;;;;;;10.80;9.77;;;24.90;90.10;;;;;;3577697;40;20048;-77
2021/06/19 10:22:34;;;;;;;9.75;8.32;;;25.00;91.70;;;;;;3576965;40;20122;-78
2021/06/19 10:25:21;;;;;;;11.35;10.18;;;25.10;91.40;;;;;;3576432;40;20055;-78
2021/06/19 10:27:49;;;;;;;10.70;9.57;;;25.20;91.20;;;;;;3576454;40;20044;-79
2021/06/19 10:30:16;;;;;;;12.05;10.20;;;25.20;91.00;;;;;;3575544;40;20048;-77
2021/06/19 10:32:45;;;;;;;12.73;11.13;;;25.40;91.40;;;;;;3577492;40;20141;-78
2021/06/19 10:35:17;;;;;;;10.45;9.45;;;25.40;91.10;;;;;;3576584;40;20051;-79
2021/06/19 10:37:44;;;;;;;9.70;8.80;;;25.40;90.20;;;;;;3576433;40;20041;-79
2021/06/19 10:40:20;;;;;;;10.10;9.15;;;25.50;91.10;;;;;;3577996;40;20044;-78
2021/06/19 10:42:46;;;;;;;9.38;8.25;;;25.70;87.60;;;;;;3576210;40;20044;-77
2021/06/19 10:45:22;;;;;;;9.57;8.63;;;25.60;90.10;;;;;;3577545;40;20052;-78
2021/06/19 10:48:13;;;;;;;9.35;8.45;;;25.40;89.70;;;;;;3576519;40;20045;-79
2021/06/19 10:50:44;;;;;;;10.32;9.32;;;25.20;84.00;;;;;;3572649;40;20239;-78
2021/06/19 10:53:21;;;;;;;13.27;10.57;;;25.20;90.00;;;;;;3576311;40;20190;-77
2021/06/19 10:55:56;;;;;;;13.18;11.88;;;25.30;85.60;;;;;;3576263;40;20319;-79
2021/06/19 10:58:27;;;;;;;12.38;11.18;;;25.40;88.40;;;;;;3577080;40;20078;-78
2021/06/19 11:00:57;;;;;;;10.88;9.82;;;25.40;90.00;;;;;;3576558;40;20044;-78
2021/06/19 11:03:47;;;;;;;9.82;8.80;;;25.50;89.50;;;;;;3576099;40;20044;-79
2021/06/19 11:06:23;;;;;;;10.57;9.43;;;25.60;85.00;;;;;;3577887;40;20041;-78
2021/06/19 11:09:15;;;;;;;12.32;11.07;;;25.70;87.50;;;;;;3568192;40;20036;-78
2021/06/19 11:11:54;;;;;;;12.68;10.88;;;25.80;85.10;;;;;;3577005;40;20041;-80
2021/06/19 11:14:47;;;;;;;12.73;11.43;;;25.80;81.90;;;;;;3575727;40;20111;-79
2021/06/19 11:17:22;;;;;;;11.90;10.70;;;25.80;81.40;;;;;;3569004;40;20052;-78
2021/06/19 11:19:51;;;;;;;10.30;9.43;;;25.90;84.40;;;;;;3576867;40;20123;-79
2021/06/19 11:22:31;;;;;;;10.85;9.65;;;26.00;89.00;;;;;;3576224;40;20044;-78
2021/06/19 11:25:27;;;;;;;8.93;8.23;;;26.30;85.00;;;;;;3576246;40;20103;-78
2021/06/19 11:28:00;;;;;;;9.25;8.35;;;26.40;78.30;;;;;;3576141;40;20074;-78
2021/06/19 11:30:37;;;;;;;8.05;7.25;;;26.40;86.80;;;;;;3577879;40;20642;-79
2021/06/19 11:33:22;;;;;;;9.82;8.93;;;26.50;79.40;;;;;;3575178;40;20040;-78
2021/06/19 11:35:53;;;;;;;7.50;6.97;;;26.60;79.70;;;;;;3574597;40;20361;-78
2021/06/19 11:38:21;;;;;;;12.38;11.27;;;26.70;87.70;;;;;;3576867;40;20044;-78
2021/06/19 11:40:48;;;;;;;12.80;11.70;;;26.90;86.30;;;;;;3578627;40;20243;-79
2021/06/19 11:43:15;;;;;;;11.13;10.23;;;26.90;86.00;;;;;;3558305;40;20054;-78
2021/06/19 11:45:42;;;;;;;10.73;9.73;;;26.80;84.20;;;;;;3578015;40;20320;-78
2021/06/19 11:48:11;;;;;;;11.38;10.40;;;26.60;84.40;;;;;;3568035;40;20059;-79
2021/06/19 11:50:39;;;;;;;12.35;11.27;;;26.60;85.20;;;;;;3577201;40;20040;-80
2021/06/19 11:53:29;;;;;;;15.30;11.77;;;26.60;85.60;;;;;;3577745;40;20084;-78
2021/06/19 11:56:10;;;;;;;12.20;11.10;;;26.60;79.10;;;;;;3576745;40;20048;-79
2021/06/19 11:58:47;;;;;;;14.07;12.65;;;26.80;78.70;;;;;;3575970;40;20057;-77
2021/06/19 12:01:33;;;;;;;12.75;11.68;;;27.10;80.60;;;;;;3575802;40;20321;-78
2021/06/19 12:04:04;;;;;;;12.98;11.98;;;27.30;79.00;;;;;;3576380;40;20036;-79
2021/06/19 12:06:37;;;;;;;9.60;8.75;;;27.50;84.70;;;;;;3566196;40;20033;-78
2021/06/19 12:09:09;;;;;;;12.27;11.30;;;27.50;84.00;;;;;;3577575;40;20041;-79
2021/06/19 12:11:38;;;;;;;13.03;12.00;;;27.30;83.70;;;;;;3577854;40;20040;-79
2021/06/19 12:14:20;;;;;;;11.00;10.18;;;27.10;82.80;;;;;;3572575;40;20291;-78
2021/06/19 12:16:50;;;;;;;13.00;11.90;;;26.90;76.60;;;;;;3573885;40;20052;-78
2021/06/19 12:19:17;;;;;;;15.00;13.75;;;26.80;83.80;;;;;;3575810;40;20238;-79
2021/06/19 12:21:43;;;;;;;14.07;12.73;;;26.80;83.10;;;;;;3566987;40;20122;-78
2021/06/19 12:24:33;;;;;;;15.25;14.05;;;26.80;83.40;;;;;;3575318;40;20037;-78
2021/06/19 12:27:04;;;;;;;12.88;11.88;;;26.80;75.80;;;;;;3577342;40;20275;-78
2021/06/19 12:29:38;;;;;;;12.27;11.13;;;26.70;80.80;;;;;;3565808;40;20040;-79
2021/06/19 12:32:32;;;;;;;10.57;9.68;;;26.60;77.40;;;;;;3576749;40;20067;-77
2021/06/19 12:35:20;;;;;;;11.73;10.70;;;26.70;76.40;;;;;;3576386;40;20045;-79
2021/06/19 12:37:57;;;;;;;13.25;12.13;;;26.80;81.30;;;;;;3568687;40;20045;-79
2021/06/19 12:40:36;;;;;;;16.13;12.15;;;26.90;75.70;;;;;;3568171;40;20041;-79